sensor_id;sensor_type;location;lat;lon;timestamp;P1;durP1;ratioP1;P2;durP2;ratioP2
12784;SDS011;6456;42.680;23.260;2023-02-10T00:01:07;33.50;;;19.60;;
12784;SDS011;6456;42.680;23.260;2023-02-10T00:03:35;30.80;;;18.30;;
12784;SDS011;6456;42.680;23.260;2023-02-10T00:06:03;31.00;;;18.43;;
12784;SDS011;6456;42.680;23.260;2023-02-10T00:08:31;31.43;;;18.27;;
12784;SDS011;6456;42.680;23.260;2023-02-10T00:10:59;31.83;;;18.63;;
12784;SDS011;6456;42.680;23.260;2023-02-10T00:13:29;32.43;;;19.37;;
12784;SDS011;6456;42.680;23.260;2023-02-10T00:15:56;33.00;;;19.53;;
12784;SDS011;6456;42.680;23.260;2023-02-10T00:18:24;28.90;;;18.20;;
12784;SDS011;6456;42.680;23.260;2023-02-10T00:20:53;32.43;;;19.00;;
12784;SDS011;6456;42.680;23.260;2023-02-10T00:23:21;31.20;;;18.27;;
12784;SDS011;6456;42.680;23.260;2023-02-10T00:25:47;31.57;;;18.43;;
12784;SDS011;6456;42.680;23.260;2023-02-10T00:28:14;30.90;;;17.43;;
12784;SDS011;6456;42.680;23.260;2023-02-10T00:30:43;32.33;;;19.23;;
12784;SDS011;6456;42.680;23.260;2023-02-10T00:33:09;33.17;;;18.40;;
12784;SDS011;6456;42.680;23.260;2023-02-10T00:35:36;25.97;;;17.20;;
12784;SDS011;6456;42.680;23.260;2023-02-10T00:38:03;29.07;;;17.37;;
12784;SDS011;6456;42.680;23.260;2023-02-10T00:40:30;28.53;;;17.47;;
12784;SDS011;6456;42.680;23.260;2023-02-10T00:42:57;28.50;;;17.20;;
12784;SDS011;6456;42.680;23.260;2023-02-10T00:45:24;25.20;;;16.20;;
12784;SDS011;6456;42.680;23.260;2023-02-10T00:47:52;26.73;;;15.57;;
12784;SDS011;6456;42.680;23.260;2023-02-10T00:50:20;27.03;;;16.50;;
12784;SDS011;6456;42.680;23.260;2023-02-10T00:52:46;23.40;;;14.73;;
12784;SDS011;6456;42.680;23.260;2023-02-10T00:55:13;25.17;;;15.20;;
12784;SDS011;6456;42.680;23.260;2023-02-10T00:57:40;24.10;;;16.30;;
12784;SDS011;6456;42.680;23.260;2023-02-10T01:00:07;29.17;;;15.97;;
12784;SDS011;6456;42.680;23.260;2023-02-10T01:02:35;26.83;;;16.07;;
12784;SDS011;6456;42.680;23.260;2023-02-10T01:05:06;26.97;;;16.47;;
12784;SDS011;6456;42.680;23.260;2023-02-10T01:07:33;24.83;;;15.70;;
12784;SDS011;6456;42.680;23.260;2023-02-10T01:10:00;27.00;;;15.57;;
12784;SDS011;6456;42.680;23.260;2023-02-10T01:12:27;27.07;;;15.87;;
12784;SDS011;6456;42.680;23.260;2023-02-10T01:14:54;26.90;;;16.07;;
12784;SDS011;6456;42.680;23.260;2023-02-10T01:17:21;29.53;;;16.67;;
12784;SDS011;6456;42.680;23.260;2023-02-10T01:19:48;28.50;;;17.40;;
12784;SDS011;6456;42.680;23.260;2023-02-10T01:22:17;29.57;;;18.00;;
12784;SDS011;6456;42.680;23.260;2023-02-10T01:24:44;29.70;;;18.43;;
12784;SDS011;6456;42.680;23.260;2023-02-10T01:27:11;25.73;;;16.67;;
12784;SDS011;6456;42.680;23.260;2023-02-10T01:29:38;31.17;;;17.30;;
12784;SDS011;6456;42.680;23.260;2023-02-10T01:32:04;29.47;;;17.70;;
12784;SDS011;6456;42.680;23.260;2023-02-10T01:34:31;30.17;;;18.07;;
12784;SDS011;6456;42.680;23.260;2023-02-10T01:36:58;29.77;;;17.87;;
12784;SDS011;6456;42.680;23.260;2023-02-10T01:39:26;28.70;;;17.63;;
12784;SDS011;6456;42.680;23.260;2023-02-10T01:41:53;27.23;;;17.10;;
12784;SDS011;6456;42.680;23.260;2023-02-10T01:47:44;31.27;;;16.73;;
12784;SDS011;6456;42.680;23.260;2023-02-10T01:50:13;26.67;;;16.93;;
12784;SDS011;6456;42.680;23.260;2023-02-10T01:52:41;27.90;;;15.93;;
12784;SDS011;6456;42.680;23.260;2023-02-10T01:55:12;27.67;;;16.73;;
12784;SDS011;6456;42.680;23.260;2023-02-10T01:57:42;25.53;;;15.57;;
12784;SDS011;6456;42.680;23.260;2023-02-10T02:00:10;25.50;;;14.83;;
12784;SDS011;6456;42.680;23.260;2023-02-10T02:02:39;23.90;;;14.53;;
12784;SDS011;6456;42.680;23.260;2023-02-10T02:05:17;26.57;;;15.63;;
12784;SDS011;6456;42.680;23.260;2023-02-10T02:07:46;25.87;;;15.37;;
12784;SDS011;6456;42.680;23.260;2023-02-10T02:10:15;23.43;;;15.47;;
12784;SDS011;6456;42.680;23.260;2023-02-10T02:12:45;25.60;;;15.43;;
12784;SDS011;6456;42.680;23.260;2023-02-10T02:15:21;26.43;;;16.03;;
12784;SDS011;6456;42.680;23.260;2023-02-10T02:17:54;29.80;;;16.50;;
12784;SDS011;6456;42.680;23.260;2023-02-10T02:20:43;30.13;;;16.60;;
12784;SDS011;6456;42.680;23.260;2023-02-10T02:23:34;23.60;;;16.20;;
12784;SDS011;6456;42.680;23.260;2023-02-10T02:26:38;26.60;;;16.60;;
12784;SDS011;6456;42.680;23.260;2023-02-10T02:29:32;29.83;;;17.77;;
12784;SDS011;6456;42.680;23.260;2023-02-10T02:32:13;28.47;;;16.77;;
12784;SDS011;6456;42.680;23.260;2023-02-10T02:34:44;30.03;;;18.37;;
12784;SDS011;6456;42.680;23.260;2023-02-10T02:37:17;28.53;;;17.20;;
12784;SDS011;6456;42.680;23.260;2023-02-10T02:39:48;30.10;;;16.47;;
12784;SDS011;6456;42.680;23.260;2023-02-10T02:42:17;26.40;;;14.87;;
12784;SDS011;6456;42.680;23.260;2023-02-10T02:44:46;24.37;;;15.90;;
12784;SDS011;6456;42.680;23.260;2023-02-10T02:50:20;28.40;;;16.43;;
12784;SDS011;6456;42.680;23.260;2023-02-10T02:53:04;31.23;;;16.40;;
12784;SDS011;6456;42.680;23.260;2023-02-10T02:55:41;29.63;;;16.20;;
12784;SDS011;6456;42.680;23.260;2023-02-10T02:58:17;27.43;;;15.30;;
12784;SDS011;6456;42.680;23.260;2023-02-10T03:00:53;30.70;;;15.67;;
12784;SDS011;6456;42.680;23.260;2023-02-10T03:03:26;29.93;;;16.73;;
12784;SDS011;6456;42.680;23.260;2023-02-10T03:05:53;26.63;;;15.40;;
12784;SDS011;6456;42.680;23.260;2023-02-10T03:08:24;26.13;;;16.63;;
12784;SDS011;6456;42.680;23.260;2023-02-10T03:10:51;30.57;;;16.87;;
12784;SDS011;6456;42.680;23.260;2023-02-10T03:13:18;24.83;;;16.20;;
12784;SDS011;6456;42.680;23.260;2023-02-10T03:15:45;28.80;;;17.30;;
12784;SDS011;6456;42.680;23.260;2023-02-10T03:18:12;27.63;;;16.73;;
12784;SDS011;6456;42.680;23.260;2023-02-10T03:20:40;26.57;;;17.00;;
12784;SDS011;6456;42.680;23.260;2023-02-10T03:23:07;27.03;;;16.57;;
12784;SDS011;6456;42.680;23.260;2023-02-10T03:25:34;30.23;;;17.60;;
12784;SDS011;6456;42.680;23.260;2023-02-10T03:28:01;33.00;;;17.27;;
12784;SDS011;6456;42.680;23.260;2023-02-10T03:30:28;30.93;;;18.27;;
12784;SDS011;6456;42.680;23.260;2023-02-10T03:32:55;30.37;;;16.53;;
12784;SDS011;6456;42.680;23.260;2023-02-10T03:35:21;30.43;;;16.77;;
12784;SDS011;6456;42.680;23.260;2023-02-10T03:37:50;29.83;;;16.40;;
12784;SDS011;6456;42.680;23.260;2023-02-10T03:40:17;28.23;;;17.80;;
12784;SDS011;6456;42.680;23.260;2023-02-10T03:42:44;29.87;;;18.37;;
12784;SDS011;6456;42.680;23.260;2023-02-10T03:45:10;27.13;;;18.07;;
12784;SDS011;6456;42.680;23.260;2023-02-10T03:47:37;30.70;;;17.77;;
12784;SDS011;6456;42.680;23.260;2023-02-10T03:50:04;33.00;;;17.17;;
12784;SDS011;6456;42.680;23.260;2023-02-10T03:52:31;26.73;;;16.23;;
12784;SDS011;6456;42.680;23.260;2023-02-10T03:55:00;27.77;;;17.07;;
12784;SDS011;6456;42.680;23.260;2023-02-10T03:57:28;29.67;;;16.30;;
12784;SDS011;6456;42.680;23.260;2023-02-10T03:59:54;29.83;;;17.10;;
12784;SDS011;6456;42.680;23.260;2023-02-10T04:02:21;26.50;;;16.03;;
12784;SDS011;6456;42.680;23.260;2023-02-10T04:04:48;30.07;;;16.20;;
12784;SDS011;6456;42.680;23.260;2023-02-10T04:07:15;26.80;;;15.87;;
12784;SDS011;6456;42.680;23.260;2023-02-10T04:09:42;26.97;;;16.10;;
12784;SDS011;6456;42.680;23.260;2023-02-10T04:12:10;27.43;;;16.93;;
12784;SDS011;6456;42.680;23.260;2023-02-10T04:14:37;25.43;;;17.30;;
12784;SDS011;6456;42.680;23.260;2023-02-10T04:17:04;30.20;;;16.93;;
12784;SDS011;6456;42.680;23.260;2023-02-10T04:19:31;26.70;;;16.20;;
12784;SDS011;6456;42.680;23.260;2023-02-10T04:21:58;27.57;;;17.00;;
12784;SDS011;6456;42.680;23.260;2023-02-10T04:24:25;26.03;;;16.30;;
12784;SDS011;6456;42.680;23.260;2023-02-10T04:26:52;26.60;;;16.20;;
12784;SDS011;6456;42.680;23.260;2023-02-10T04:29:21;27.37;;;15.80;;
12784;SDS011;6456;42.680;23.260;2023-02-10T04:31:48;28.53;;;16.37;;
12784;SDS011;6456;42.680;23.260;2023-02-10T04:34:15;26.77;;;16.23;;
12784;SDS011;6456;42.680;23.260;2023-02-10T04:36:43;27.77;;;16.10;;
12784;SDS011;6456;42.680;23.260;2023-02-10T04:39:10;30.53;;;17.13;;
12784;SDS011;6456;42.680;23.260;2023-02-10T04:41:37;26.00;;;16.37;;
12784;SDS011;6456;42.680;23.260;2023-02-10T04:44:04;26.93;;;16.67;;
12784;SDS011;6456;42.680;23.260;2023-02-10T04:46:33;32.13;;;18.20;;
12784;SDS011;6456;42.680;23.260;2023-02-10T04:49:00;30.47;;;18.40;;
12784;SDS011;6456;42.680;23.260;2023-02-10T04:51:27;29.10;;;17.37;;
12784;SDS011;6456;42.680;23.260;2023-02-10T04:53:54;27.43;;;15.40;;
12784;SDS011;6456;42.680;23.260;2023-02-10T04:56:21;26.60;;;14.70;;
12784;SDS011;6456;42.680;23.260;2023-02-10T04:58:48;30.57;;;15.90;;
12784;SDS011;6456;42.680;23.260;2023-02-10T05:01:14;23.33;;;13.80;;
12784;SDS011;6456;42.680;23.260;2023-02-10T05:03:43;28.87;;;14.53;;
12784;SDS011;6456;42.680;23.260;2023-02-10T05:06:10;22.53;;;13.57;;
12784;SDS011;6456;42.680;23.260;2023-02-10T05:08:39;36.83;;;21.00;;
12784;SDS011;6456;42.680;23.260;2023-02-10T05:11:06;40.53;;;20.97;;
12784;SDS011;6456;42.680;23.260;2023-02-10T05:13:34;37.80;;;21.33;;
12784;SDS011;6456;42.680;23.260;2023-02-10T05:16:01;34.07;;;20.83;;
12784;SDS011;6456;42.680;23.260;2023-02-10T05:18:28;31.70;;;18.03;;
12784;SDS011;6456;42.680;23.260;2023-02-10T05:20:57;33.23;;;19.10;;
12784;SDS011;6456;42.680;23.260;2023-02-10T05:23:23;37.33;;;21.40;;
12784;SDS011;6456;42.680;23.260;2023-02-10T05:25:50;49.40;;;26.83;;
12784;SDS011;6456;42.680;23.260;2023-02-10T05:28:17;105.00;;;52.47;;
12784;SDS011;6456;42.680;23.260;2023-02-10T05:30:44;110.33;;;51.33;;
12784;SDS011;6456;42.680;23.260;2023-02-10T05:33:13;101.50;;;49.47;;
12784;SDS011;6456;42.680;23.260;2023-02-10T05:35:40;90.07;;;44.40;;
12784;SDS011;6456;42.680;23.260;2023-02-10T05:38:08;74.70;;;39.60;;
12784;SDS011;6456;42.680;23.260;2023-02-10T05:40:35;88.40;;;39.83;;
12784;SDS011;6456;42.680;23.260;2023-02-10T05:43:02;108.50;;;43.43;;
12784;SDS011;6456;42.680;23.260;2023-02-10T05:45:29;45.87;;;27.80;;
12784;SDS011;6456;42.680;23.260;2023-02-10T05:47:56;43.30;;;24.77;;
12784;SDS011;6456;42.680;23.260;2023-02-10T05:50:23;41.23;;;23.60;;
12784;SDS011;6456;42.680;23.260;2023-02-10T05:52:49;53.63;;;28.13;;
12784;SDS011;6456;42.680;23.260;2023-02-10T05:55:18;66.60;;;30.77;;
12784;SDS011;6456;42.680;23.260;2023-02-10T05:57:46;58.57;;;29.20;;
12784;SDS011;6456;42.680;23.260;2023-02-10T06:00:13;46.13;;;26.57;;
12784;SDS011;6456;42.680;23.260;2023-02-10T06:02:41;53.60;;;27.47;;
12784;SDS011;6456;42.680;23.260;2023-02-10T06:05:08;55.23;;;28.57;;
12784;SDS011;6456;42.680;23.260;2023-02-10T06:07:34;71.73;;;33.87;;
12784;SDS011;6456;42.680;23.260;2023-02-10T06:10:01;67.40;;;32.17;;
12784;SDS011;6456;42.680;23.260;2023-02-10T06:12:29;55.43;;;29.57;;
12784;SDS011;6456;42.680;23.260;2023-02-10T06:14:56;55.03;;;27.37;;
12784;SDS011;6456;42.680;23.260;2023-02-10T06:17:23;39.20;;;24.63;;
12784;SDS011;6456;42.680;23.260;2023-02-10T06:19:51;50.57;;;28.33;;
12784;SDS011;6456;42.680;23.260;2023-02-10T06:22:18;55.63;;;29.67;;
12784;SDS011;6456;42.680;23.260;2023-02-10T06:24:45;58.60;;;28.97;;
12784;SDS011;6456;42.680;23.260;2023-02-10T06:27:11;66.47;;;31.70;;
12784;SDS011;6456;42.680;23.260;2023-02-10T06:29:40;61.23;;;30.33;;
12784;SDS011;6456;42.680;23.260;2023-02-10T06:32:07;57.10;;;29.43;;
12784;SDS011;6456;42.680;23.260;2023-02-10T06:34:34;54.20;;;26.30;;
12784;SDS011;6456;42.680;23.260;2023-02-10T06:37:01;43.90;;;24.30;;
12784;SDS011;6456;42.680;23.260;2023-02-10T06:39:28;37.73;;;22.17;;
12784;SDS011;6456;42.680;23.260;2023-02-10T06:41:54;40.83;;;20.33;;
12784;SDS011;6456;42.680;23.260;2023-02-10T06:44:22;31.70;;;18.40;;
12784;SDS011;6456;42.680;23.260;2023-02-10T06:46:51;30.33;;;17.90;;
12784;SDS011;6456;42.680;23.260;2023-02-10T06:49:18;38.20;;;21.57;;
12784;SDS011;6456;42.680;23.260;2023-02-10T06:51:44;36.97;;;21.03;;
12784;SDS011;6456;42.680;23.260;2023-02-10T06:54:11;36.50;;;21.20;;
12784;SDS011;6456;42.680;23.260;2023-02-10T06:56:38;35.63;;;20.90;;
12784;SDS011;6456;42.680;23.260;2023-02-10T06:59:06;34.43;;;20.73;;
12784;SDS011;6456;42.680;23.260;2023-02-10T07:01:33;32.60;;;20.40;;
12784;SDS011;6456;42.680;23.260;2023-02-10T07:04:01;36.40;;;19.50;;
12784;SDS011;6456;42.680;23.260;2023-02-10T07:06:28;36.90;;;21.83;;
12784;SDS011;6456;42.680;23.260;2023-02-10T07:08:55;41.37;;;22.83;;
12784;SDS011;6456;42.680;23.260;2023-02-10T07:11:22;39.00;;;22.23;;
12784;SDS011;6456;42.680;23.260;2023-02-10T07:13:49;40.00;;;24.43;;
12784;SDS011;6456;42.680;23.260;2023-02-10T07:16:16;39.40;;;23.30;;
12784;SDS011;6456;42.680;23.260;2023-02-10T07:18:42;40.50;;;24.77;;
12784;SDS011;6456;42.680;23.260;2023-02-10T07:21:11;35.10;;;21.83;;
12784;SDS011;6456;42.680;23.260;2023-02-10T07:23:37;31.33;;;20.83;;
12784;SDS011;6456;42.680;23.260;2023-02-10T07:26:04;35.27;;;20.63;;
12784;SDS011;6456;42.680;23.260;2023-02-10T07:28:32;32.93;;;19.40;;
12784;SDS011;6456;42.680;23.260;2023-02-10T07:30:59;29.37;;;18.03;;
12784;SDS011;6456;42.680;23.260;2023-02-10T07:33:26;31.27;;;17.93;;
12784;SDS011;6456;42.680;23.260;2023-02-10T07:35:53;30.57;;;17.93;;
12784;SDS011;6456;42.680;23.260;2023-02-10T07:38:21;32.90;;;19.60;;
12784;SDS011;6456;42.680;23.260;2023-02-10T07:40:48;31.97;;;20.00;;
12784;SDS011;6456;42.680;23.260;2023-02-10T07:43:22;39.70;;;20.90;;
12784;SDS011;6456;42.680;23.260;2023-02-10T07:45:49;34.33;;;19.87;;
12784;SDS011;6456;42.680;23.260;2023-02-10T07:48:16;31.90;;;20.17;;
12784;SDS011;6456;42.680;23.260;2023-02-10T07:50:44;32.23;;;20.50;;
12784;SDS011;6456;42.680;23.260;2023-02-10T07:53:12;28.87;;;18.33;;
12784;SDS011;6456;42.680;23.260;2023-02-10T07:55:41;34.70;;;20.80;;
12784;SDS011;6456;42.680;23.260;2023-02-10T07:58:07;36.13;;;25.30;;
12784;SDS011;6456;42.680;23.260;2023-02-10T08:00:34;36.30;;;22.10;;
12784;SDS011;6456;42.680;23.260;2023-02-10T08:03:01;31.03;;;18.50;;
12784;SDS011;6456;42.680;23.260;2023-02-10T08:05:28;28.77;;;17.50;;
12784;SDS011;6456;42.680;23.260;2023-02-10T08:07:55;34.20;;;20.90;;
12784;SDS011;6456;42.680;23.260;2023-02-10T08:10:22;39.93;;;21.50;;
12784;SDS011;6456;42.680;23.260;2023-02-10T08:12:50;37.27;;;23.57;;
12784;SDS011;6456;42.680;23.260;2023-02-10T08:15:17;43.63;;;24.43;;
12784;SDS011;6456;42.680;23.260;2023-02-10T08:17:46;40.23;;;24.27;;
12784;SDS011;6456;42.680;23.260;2023-02-10T08:20:13;39.57;;;23.30;;
12784;SDS011;6456;42.680;23.260;2023-02-10T08:22:40;42.57;;;23.73;;
12784;SDS011;6456;42.680;23.260;2023-02-10T08:25:07;33.97;;;21.07;;
12784;SDS011;6456;42.680;23.260;2023-02-10T08:27:34;35.37;;;21.40;;
12784;SDS011;6456;42.680;23.260;2023-02-10T08:30:02;42.33;;;24.20;;
12784;SDS011;6456;42.680;23.260;2023-02-10T08:32:30;33.47;;;21.57;;
12784;SDS011;6456;42.680;23.260;2023-02-10T08:34:57;34.73;;;21.63;;
12784;SDS011;6456;42.680;23.260;2023-02-10T08:37:25;33.70;;;21.80;;
12784;SDS011;6456;42.680;23.260;2023-02-10T08:39:51;37.93;;;22.83;;
12784;SDS011;6456;42.680;23.260;2023-02-10T08:42:18;37.10;;;24.13;;
12784;SDS011;6456;42.680;23.260;2023-02-10T08:44:45;38.30;;;25.13;;
12784;SDS011;6456;42.680;23.260;2023-02-10T08:47:13;33.57;;;21.87;;
12784;SDS011;6456;42.680;23.260;2023-02-10T08:49:40;36.13;;;20.83;;
12784;SDS011;6456;42.680;23.260;2023-02-10T08:52:07;30.53;;;19.47;;
12784;SDS011;6456;42.680;23.260;2023-02-10T08:54:35;38.67;;;22.73;;
12784;SDS011;6456;42.680;23.260;2023-02-10T08:57:01;38.53;;;23.73;;
12784;SDS011;6456;42.680;23.260;2023-02-10T08:59:28;39.97;;;23.90;;
12784;SDS011;6456;42.680;23.260;2023-02-10T09:01:55;37.73;;;23.37;;
12784;SDS011;6456;42.680;23.260;2023-02-10T09:04:23;33.67;;;21.83;;
12784;SDS011;6456;42.680;23.260;2023-02-10T09:06:50;37.80;;;22.03;;
12784;SDS011;6456;42.680;23.260;2023-02-10T09:09:18;32.93;;;21.87;;
12784;SDS011;6456;42.680;23.260;2023-02-10T09:11:49;36.50;;;22.03;;
12784;SDS011;6456;42.680;23.260;2023-02-10T09:14:18;34.13;;;21.50;;
12784;SDS011;6456;42.680;23.260;2023-02-10T09:16:45;32.97;;;20.07;;
12784;SDS011;6456;42.680;23.260;2023-02-10T09:19:12;36.20;;;21.80;;
12784;SDS011;6456;42.680;23.260;2023-02-10T09:21:40;31.37;;;20.40;;
12784;SDS011;6456;42.680;23.260;2023-02-10T09:24:07;34.83;;;19.67;;
12784;SDS011;6456;42.680;23.260;2023-02-10T09:26:34;35.10;;;19.97;;
12784;SDS011;6456;42.680;23.260;2023-02-10T09:29:01;30.73;;;18.77;;
12784;SDS011;6456;42.680;23.260;2023-02-10T09:31:28;30.07;;;19.30;;
12784;SDS011;6456;42.680;23.260;2023-02-10T09:33:55;33.07;;;19.13;;
12784;SDS011;6456;42.680;23.260;2023-02-10T09:36:22;30.87;;;19.20;;
12784;SDS011;6456;42.680;23.260;2023-02-10T09:38:50;32.17;;;18.77;;
12784;SDS011;6456;42.680;23.260;2023-02-10T09:41:20;30.77;;;18.70;;
12784;SDS011;6456;42.680;23.260;2023-02-10T09:44:09;29.53;;;18.53;;
12784;SDS011;6456;42.680;23.260;2023-02-10T09:46:44;33.23;;;16.93;;
12784;SDS011;6456;42.680;23.260;2023-02-10T09:49:38;25.23;;;16.03;;
12784;SDS011;6456;42.680;23.260;2023-02-10T09:52:15;24.10;;;15.90;;
12784;SDS011;6456;42.680;23.260;2023-02-10T09:54:52;33.73;;;19.53;;
12784;SDS011;6456;42.680;23.260;2023-02-10T09:57:21;24.37;;;17.03;;
12784;SDS011;6456;42.680;23.260;2023-02-10T09:59:53;35.80;;;17.30;;
12784;SDS011;6456;42.680;23.260;2023-02-10T10:02:32;27.83;;;17.07;;
12784;SDS011;6456;42.680;23.260;2023-02-10T10:05:10;30.97;;;17.70;;
12784;SDS011;6456;42.680;23.260;2023-02-10T10:07:56;30.10;;;17.37;;
12784;SDS011;6456;42.680;23.260;2023-02-10T10:10:26;33.00;;;18.17;;
12784;SDS011;6456;42.680;23.260;2023-02-10T10:12:58;40.87;;;17.07;;
12784;SDS011;6456;42.680;23.260;2023-02-10T10:15:26;24.83;;;17.00;;
12784;SDS011;6456;42.680;23.260;2023-02-10T10:18:00;31.97;;;19.57;;
12784;SDS011;6456;42.680;23.260;2023-02-10T10:20:46;37.17;;;20.20;;
12784;SDS011;6456;42.680;23.260;2023-02-10T10:23:21;32.57;;;19.43;;
12784;SDS011;6456;42.680;23.260;2023-02-10T10:26:13;22.90;;;15.17;;
12784;SDS011;6456;42.680;23.260;2023-02-10T10:28:49;24.53;;;15.37;;
12784;SDS011;6456;42.680;23.260;2023-02-10T10:31:28;25.23;;;16.00;;
12784;SDS011;6456;42.680;23.260;2023-02-10T10:33:57;27.60;;;16.73;;
12784;SDS011;6456;42.680;23.260;2023-02-10T10:36:29;29.33;;;15.97;;
12784;SDS011;6456;42.680;23.260;2023-02-10T10:39:00;33.10;;;16.37;;
12784;SDS011;6456;42.680;23.260;2023-02-10T10:41:32;26.33;;;14.97;;
12784;SDS011;6456;42.680;23.260;2023-02-10T10:44:01;31.00;;;16.57;;
12784;SDS011;6456;42.680;23.260;2023-02-10T10:46:30;38.93;;;18.83;;
12784;SDS011;6456;42.680;23.260;2023-02-10T10:49:02;31.57;;;18.87;;
12784;SDS011;6456;42.680;23.260;2023-02-10T10:51:29;27.23;;;19.10;;
12784;SDS011;6456;42.680;23.260;2023-02-10T10:53:58;32.57;;;21.33;;
12784;SDS011;6456;42.680;23.260;2023-02-10T10:56:26;33.73;;;19.90;;
12784;SDS011;6456;42.680;23.260;2023-02-10T10:59:02;31.43;;;19.63;;
12784;SDS011;6456;42.680;23.260;2023-02-10T11:01:32;33.00;;;18.97;;
12784;SDS011;6456;42.680;23.260;2023-02-10T11:04:05;32.30;;;16.80;;
12784;SDS011;6456;42.680;23.260;2023-02-10T11:06:33;28.10;;;17.37;;
12784;SDS011;6456;42.680;23.260;2023-02-10T11:09:04;25.93;;;16.70;;
12784;SDS011;6456;42.680;23.260;2023-02-10T11:11:34;23.30;;;16.07;;
12784;SDS011;6456;42.680;23.260;2023-02-10T11:14:09;34.00;;;17.90;;
12784;SDS011;6456;42.680;23.260;2023-02-10T11:16:41;29.33;;;16.77;;
12784;SDS011;6456;42.680;23.260;2023-02-10T11:19:17;37.30;;;19.87;;
12784;SDS011;6456;42.680;23.260;2023-02-10T11:21:46;35.87;;;18.43;;
12784;SDS011;6456;42.680;23.260;2023-02-10T11:24:15;30.23;;;19.17;;
12784;SDS011;6456;42.680;23.260;2023-02-10T11:26:53;28.53;;;18.73;;
12784;SDS011;6456;42.680;23.260;2023-02-10T11:29:22;28.53;;;19.27;;
12784;SDS011;6456;42.680;23.260;2023-02-10T11:31:50;32.67;;;19.40;;
12784;SDS011;6456;42.680;23.260;2023-02-10T11:34:19;31.17;;;19.40;;
12784;SDS011;6456;42.680;23.260;2023-02-10T11:36:50;28.77;;;19.07;;
12784;SDS011;6456;42.680;23.260;2023-02-10T11:39:20;29.73;;;19.23;;
12784;SDS011;6456;42.680;23.260;2023-02-10T11:41:49;35.20;;;19.63;;
12784;SDS011;6456;42.680;23.260;2023-02-10T11:44:24;35.87;;;20.90;;
12784;SDS011;6456;42.680;23.260;2023-02-10T11:46:54;33.07;;;19.53;;
12784;SDS011;6456;42.680;23.260;2023-02-10T11:49:22;31.67;;;19.67;;
12784;SDS011;6456;42.680;23.260;2023-02-10T11:51:53;31.47;;;19.90;;
12784;SDS011;6456;42.680;23.260;2023-02-10T11:54:22;31.50;;;20.43;;
12784;SDS011;6456;42.680;23.260;2023-02-10T11:56:53;31.93;;;19.83;;
12784;SDS011;6456;42.680;23.260;2023-02-10T11:59:50;29.27;;;19.40;;
12784;SDS011;6456;42.680;23.260;2023-02-10T12:02:28;29.40;;;18.93;;
12784;SDS011;6456;42.680;23.260;2023-02-10T12:05:13;32.50;;;19.20;;
12784;SDS011;6456;42.680;23.260;2023-02-10T12:07:54;31.33;;;19.23;;
12784;SDS011;6456;42.680;23.260;2023-02-10T12:10:36;29.10;;;18.63;;
12784;SDS011;6456;42.680;23.260;2023-02-10T12:13:12;34.50;;;19.03;;
12784;SDS011;6456;42.680;23.260;2023-02-10T12:15:52;29.37;;;17.63;;
12784;SDS011;6456;42.680;23.260;2023-02-10T12:21:24;29.17;;;18.73;;
12784;SDS011;6456;42.680;23.260;2023-02-10T12:24:06;28.17;;;18.30;;
12784;SDS011;6456;42.680;23.260;2023-02-10T12:26:45;27.30;;;18.10;;
12784;SDS011;6456;42.680;23.260;2023-02-10T12:29:22;30.10;;;18.73;;
12784;SDS011;6456;42.680;23.260;2023-02-10T12:32:02;31.30;;;17.50;;
12784;SDS011;6456;42.680;23.260;2023-02-10T12:34:54;25.53;;;16.90;;
12784;SDS011;6456;42.680;23.260;2023-02-10T12:37:36;29.57;;;17.73;;
12784;SDS011;6456;42.680;23.260;2023-02-10T12:40:15;25.97;;;17.13;;
12784;SDS011;6456;42.680;23.260;2023-02-10T12:43:06;30.77;;;18.80;;
12784;SDS011;6456;42.680;23.260;2023-02-10T12:45:47;25.23;;;16.43;;
12784;SDS011;6456;42.680;23.260;2023-02-10T12:48:24;26.93;;;17.57;;
12784;SDS011;6456;42.680;23.260;2023-02-10T12:51:09;25.50;;;17.10;;
12784;SDS011;6456;42.680;23.260;2023-02-10T12:53:50;28.37;;;18.30;;
12784;SDS011;6456;42.680;23.260;2023-02-10T12:56:25;25.17;;;16.87;;
12784;SDS011;6456;42.680;23.260;2023-02-10T12:58:58;30.50;;;18.03;;
12784;SDS011;6456;42.680;23.260;2023-02-10T13:01:31;32.07;;;18.23;;
12784;SDS011;6456;42.680;23.260;2023-02-10T13:04:05;26.73;;;17.23;;
12784;SDS011;6456;42.680;23.260;2023-02-10T13:06:42;28.43;;;17.43;;
12784;SDS011;6456;42.680;23.260;2023-02-10T13:09:17;30.13;;;18.20;;
12784;SDS011;6456;42.680;23.260;2023-02-10T13:12:02;32.37;;;17.87;;
12784;SDS011;6456;42.680;23.260;2023-02-10T13:14:37;35.10;;;18.87;;
12784;SDS011;6456;42.680;23.260;2023-02-10T13:17:07;27.60;;;17.43;;
12784;SDS011;6456;42.680;23.260;2023-02-10T13:19:39;26.27;;;17.37;;
12784;SDS011;6456;42.680;23.260;2023-02-10T13:22:18;29.27;;;18.13;;
12784;SDS011;6456;42.680;23.260;2023-02-10T13:24:51;27.10;;;17.60;;
12784;SDS011;6456;42.680;23.260;2023-02-10T13:27:30;32.67;;;18.80;;
12784;SDS011;6456;42.680;23.260;2023-02-10T13:30:13;31.00;;;18.30;;
12784;SDS011;6456;42.680;23.260;2023-02-10T13:32:54;25.60;;;17.47;;
12784;SDS011;6456;42.680;23.260;2023-02-10T13:35:29;25.43;;;16.97;;
12784;SDS011;6456;42.680;23.260;2023-02-10T13:37:57;28.63;;;17.13;;
12784;SDS011;6456;42.680;23.260;2023-02-10T13:40:33;26.20;;;15.90;;
12784;SDS011;6456;42.680;23.260;2023-02-10T13:43:17;23.97;;;15.00;;
12784;SDS011;6456;42.680;23.260;2023-02-10T13:45:51;21.80;;;15.07;;
12784;SDS011;6456;42.680;23.260;2023-02-10T13:48:20;21.63;;;13.67;;
12784;SDS011;6456;42.680;23.260;2023-02-10T13:50:55;34.07;;;16.30;;
12784;SDS011;6456;42.680;23.260;2023-02-10T13:53:26;24.40;;;15.10;;
12784;SDS011;6456;42.680;23.260;2023-02-10T13:56:02;21.73;;;14.80;;
12784;SDS011;6456;42.680;23.260;2023-02-10T13:58:46;24.83;;;16.43;;
12784;SDS011;6456;42.680;23.260;2023-02-10T14:01:36;28.33;;;17.30;;
12784;SDS011;6456;42.680;23.260;2023-02-10T14:04:05;28.90;;;17.60;;
12784;SDS011;6456;42.680;23.260;2023-02-10T14:06:53;26.00;;;17.50;;
12784;SDS011;6456;42.680;23.260;2023-02-10T14:09:22;25.80;;;16.57;;
12784;SDS011;6456;42.680;23.260;2023-02-10T14:12:00;26.63;;;16.83;;
12784;SDS011;6456;42.680;23.260;2023-02-10T14:14:29;22.03;;;16.00;;
12784;SDS011;6456;42.680;23.260;2023-02-10T14:17:02;19.50;;;12.40;;
12784;SDS011;6456;42.680;23.260;2023-02-10T14:19:31;18.63;;;12.20;;
12784;SDS011;6456;42.680;23.260;2023-02-10T14:22:01;20.40;;;14.10;;
12784;SDS011;6456;42.680;23.260;2023-02-10T14:24:30;16.10;;;11.87;;
12784;SDS011;6456;42.680;23.260;2023-02-10T14:27:02;16.97;;;11.03;;
12784;SDS011;6456;42.680;23.260;2023-02-10T14:29:32;15.30;;;11.17;;
12784;SDS011;6456;42.680;23.260;2023-02-10T14:32:00;15.47;;;9.53;;
12784;SDS011;6456;42.680;23.260;2023-02-10T14:34:32;14.60;;;9.83;;
12784;SDS011;6456;42.680;23.260;2023-02-10T14:37:11;15.97;;;10.13;;
12784;SDS011;6456;42.680;23.260;2023-02-10T14:39:48;13.33;;;9.40;;
12784;SDS011;6456;42.680;23.260;2023-02-10T14:42:17;17.03;;;9.33;;
12784;SDS011;6456;42.680;23.260;2023-02-10T14:44:45;23.53;;;10.50;;
12784;SDS011;6456;42.680;23.260;2023-02-10T14:47:15;17.73;;;9.80;;
12784;SDS011;6456;42.680;23.260;2023-02-10T14:49:43;15.20;;;10.10;;